createdAt,value
2019-01-04T00:00:18.804Z,1.20
2019-01-04T00:01:18.799Z,1.40
2019-01-04T00:02:18.781Z,1.70
2019-01-04T00:03:18.774Z,1.20
2019-01-04T00:04:18.763Z,1.20
2019-01-04T00:05:18.752Z,1.20
2019-01-04T00:06:18.740Z,1.30
2019-01-04T00:07:19.013Z,1.20
2019-01-04T00:08:18.715Z,1.30
2019-01-04T00:09:18.703Z,1.20
2019-01-04T00:10:18.691Z,1.40
2019-01-04T00:11:18.684Z,1.20
2019-01-04T00:12:18.672Z,1.20
2019-01-04T00:13:18.956Z,1.30
2019-01-04T00:14:18.649Z,1.10
2019-01-04T00:15:18.646Z,1.20
2019-01-04T00:16:18.625Z,1.30
2019-01-04T00:17:18.617Z,1.30
2019-01-04T00:18:18.604Z,1.30
2019-01-04T00:19:18.863Z,1.00
2019-01-04T00:20:18.576Z,1.30
2019-01-04T00:21:18.566Z,1.40
2019-01-04T00:22:18.554Z,1.40
2019-01-04T00:23:18.547Z,1.40
2019-01-04T00:24:18.535Z,1.60
2019-01-04T00:25:18.532Z,1.20
2019-01-04T00:26:18.515Z,1.30
2019-01-04T00:27:18.503Z,1.40
2019-01-04T00:28:18.502Z,1.50
2019-01-04T00:29:18.475Z,1.30
2019-01-04T00:30:18.464Z,1.30
2019-01-04T00:31:18.766Z,1.40
2019-01-04T00:32:18.440Z,1.40
2019-01-04T00:33:18.430Z,1.20
2019-01-04T00:34:18.418Z,1.40
2019-01-04T00:35:18.417Z,1.30
2019-01-04T00:36:18.398Z,1.90
2019-01-04T00:37:18.396Z,1.10
2019-01-04T00:38:18.377Z,1.40
2019-01-04T00:39:18.361Z,1.40
2019-01-04T00:40:18.349Z,1.30
2019-01-04T00:41:18.338Z,1.20
2019-01-04T00:42:18.339Z,1.30
2019-01-04T00:43:18.330Z,1.40
2019-01-04T00:44:18.308Z,1.30
2019-01-04T00:45:18.297Z,1.30
2019-01-04T00:46:18.288Z,1.20
2019-01-04T00:47:18.275Z,1.20
2019-01-04T00:48:18.263Z,1.60
2019-01-04T00:49:18.536Z,1.40
2019-01-04T00:50:18.242Z,1.20
2019-01-04T00:51:18.225Z,1.30
2019-01-04T00:52:18.213Z,1.30
2019-01-04T00:53:18.203Z,1.30
2019-01-04T00:54:18.190Z,1.30
2019-01-04T00:55:18.191Z,1.50
2019-01-04T00:56:18.173Z,1.50
2019-01-04T00:57:18.160Z,1.40
2019-01-04T00:58:18.154Z,1.50
2019-01-04T00:59:18.133Z,1.20
2019-01-04T01:00:18.123Z,1.30
2019-01-04T01:01:18.121Z,1.30
2019-01-04T01:02:18.099Z,1.50
2019-01-04T01:03:18.092Z,1.40
2019-01-04T01:04:18.083Z,1.60
2019-01-04T01:05:18.070Z,1.20
2019-01-04T01:06:18.060Z,1.60
2019-01-04T01:07:18.329Z,1.50
2019-01-04T01:08:18.032Z,1.40
2019-01-04T01:09:18.020Z,1.40
2019-01-04T01:10:18.009Z,1.30
2019-01-04T01:11:18.002Z,1.40
2019-01-04T01:12:17.991Z,1.40
2019-01-04T01:13:18.260Z,1.40
2019-01-04T01:14:17.968Z,1.40
2019-01-04T01:15:17.954Z,1.30
2019-01-04T01:16:17.942Z,1.40
2019-01-04T01:17:17.929Z,1.30
2019-01-04T01:18:17.922Z,1.60
2019-01-04T01:19:17.933Z,1.10
2019-01-04T01:20:17.897Z,1.60
2019-01-04T01:21:17.885Z,1.30
2019-01-04T01:22:17.872Z,1.10
2019-01-04T01:23:17.866Z,1.30
2019-01-04T01:24:17.855Z,1.30
2019-01-04T01:25:18.137Z,1.30
2019-01-04T01:26:17.832Z,1.10
2019-01-04T01:27:17.821Z,1.40
2019-01-04T01:28:17.806Z,1.30
2019-01-04T01:29:17.793Z,1.30
2019-01-04T01:30:17.782Z,1.20
2019-01-04T01:31:17.782Z,1.30
2019-01-04T01:32:17.763Z,1.30
2019-01-04T01:33:17.751Z,1.50
2019-01-04T01:34:17.740Z,1.40
2019-01-04T01:35:17.728Z,1.30
2019-01-04T01:36:17.717Z,1.10
2019-01-04T01:37:17.712Z,1.30
2019-01-04T01:38:17.695Z,1.20
2019-01-04T01:39:17.681Z,1.30
2019-01-04T01:40:18.151Z,1.30
2019-01-04T01:41:17.655Z,1.30
2019-01-04T01:42:17.646Z,1.30
2019-01-04T01:43:17.646Z,1.40
2019-01-04T01:44:17.627Z,1.50
2019-01-04T01:45:17.615Z,1.60
2019-01-04T01:46:17.604Z,1.30
2019-01-04T01:47:17.609Z,1.40
2019-01-04T01:48:17.577Z,1.00
2019-01-04T01:49:17.573Z,1.40
2019-01-04T01:50:17.555Z,1.30
2019-01-04T01:51:17.543Z,1.30
2019-01-04T01:52:17.533Z,1.40
2019-01-04T01:53:17.520Z,1.30
2019-01-04T01:54:17.508Z,1.20
2019-01-04T01:55:17.509Z,1.70
2019-01-04T01:56:17.491Z,1.40
2019-01-04T01:57:17.479Z,1.10
2019-01-04T01:58:17.468Z,1.20
2019-01-04T01:59:17.452Z,1.20
2019-01-04T02:00:17.441Z,1.20
2019-01-04T02:01:17.437Z,1.20
2019-01-04T02:02:17.418Z,1.20
2019-01-04T02:03:17.413Z,1.20
2019-01-04T02:04:17.400Z,2.00
2019-01-04T02:05:17.388Z,1.50
2019-01-04T02:06:17.377Z,1.40
2019-01-04T02:07:17.374Z,1.50
2019-01-04T02:08:17.355Z,1.50
2019-01-04T02:09:17.349Z,1.40
2019-01-04T02:10:17.330Z,1.40
2019-01-04T02:11:17.316Z,1.20
2019-01-04T02:12:17.304Z,1.40
2019-01-04T02:13:17.303Z,1.50
2019-01-04T02:14:17.282Z,1.20
2019-01-04T02:15:17.274Z,1.20
2019-01-04T02:16:17.264Z,1.20
2019-01-04T02:17:17.253Z,1.30
2019-01-04T02:18:17.241Z,1.30
2019-01-04T02:19:17.254Z,1.30
2019-01-04T02:20:17.216Z,1.30
2019-01-04T02:21:17.204Z,1.40
2019-01-04T02:22:17.191Z,1.30
2019-01-04T02:23:17.180Z,1.50
2019-01-04T02:24:17.168Z,1.20
2019-01-04T02:25:17.165Z,1.30
2019-01-04T02:26:17.146Z,1.40
2019-01-04T02:27:17.140Z,1.40
2019-01-04T02:28:17.127Z,1.30
2019-01-04T02:29:17.116Z,1.10
2019-01-04T02:30:17.107Z,1.20
2019-01-04T02:31:17.094Z,1.50
2019-01-04T02:32:17.078Z,1.10
2019-01-04T02:33:17.065Z,1.30
2019-01-04T02:34:17.056Z,1.20
2019-01-04T02:35:17.049Z,1.10
2019-01-04T02:36:17.040Z,1.00
2019-01-04T02:37:17.319Z,1.50
2019-01-04T02:38:17.014Z,1.30
2019-01-04T02:39:17.003Z,1.20
2019-01-04T02:40:16.993Z,1.10
2019-01-04T02:41:16.983Z,1.30
2019-01-04T02:42:16.970Z,1.30
2019-01-04T02:43:17.296Z,1.30
2019-01-04T02:44:16.946Z,1.30
2019-01-04T02:45:16.930Z,1.80
2019-01-04T02:46:16.920Z,1.30
2019-01-04T02:47:16.912Z,1.30
2019-01-04T02:48:16.900Z,1.10
2019-01-04T02:49:17.184Z,1.30
2019-01-04T02:50:16.878Z,1.60
2019-01-04T02:51:16.864Z,1.60
2019-01-04T02:52:16.850Z,1.20
2019-01-04T02:53:16.839Z,1.30
2019-01-04T02:54:16.835Z,1.50
2019-01-04T02:55:17.109Z,1.20
2019-01-04T02:56:16.806Z,1.20
2019-01-04T02:57:16.797Z,1.90
2019-01-04T02:58:16.783Z,1.50
2019-01-04T02:59:16.776Z,1.50
2019-01-04T03:00:16.766Z,1.40
2019-01-04T03:01:17.050Z,1.20
2019-01-04T03:02:16.744Z,1.60
2019-01-04T03:03:16.725Z,1.40
2019-01-04T03:04:16.720Z,1.20
2019-01-04T03:05:16.703Z,1.50
2019-01-04T03:06:16.691Z,1.10
2019-01-04T03:07:16.694Z,1.50
2019-01-04T03:08:16.674Z,1.40
2019-01-04T03:09:16.662Z,1.40
2019-01-04T03:10:16.655Z,1.30
2019-01-04T03:11:16.635Z,1.20
2019-01-04T03:12:16.626Z,1.30
2019-01-04T03:13:16.622Z,1.40
2019-01-04T03:14:16.606Z,1.30
2019-01-04T03:15:16.595Z,1.30
2019-01-04T03:16:16.587Z,1.30
2019-01-04T03:17:16.575Z,1.30
2019-01-04T03:18:16.561Z,1.30
2019-01-04T03:19:16.575Z,1.80
2019-01-04T03:20:16.536Z,1.20
2019-01-04T03:21:16.523Z,1.40
2019-01-04T03:22:16.513Z,1.30
2019-01-04T03:23:16.503Z,1.30
2019-01-04T03:24:16.493Z,1.30
2019-01-04T03:25:16.490Z,1.00
2019-01-04T03:26:16.475Z,1.30
2019-01-04T03:27:16.460Z,1.30
2019-01-04T03:28:16.448Z,1.50
2019-01-04T03:29:16.498Z,1.60
2019-01-04T03:30:16.426Z,1.40
2019-01-04T03:31:16.724Z,1.30
2019-01-04T03:32:16.400Z,1.30
2019-01-04T03:33:16.389Z,1.30
2019-01-04T03:34:16.374Z,1.30
2019-01-04T03:35:16.371Z,1.30
2019-01-04T03:36:16.357Z,1.30
2019-01-04T03:37:16.351Z,1.50
2019-01-04T03:38:16.335Z,1.30
2019-01-04T03:39:16.319Z,1.20
2019-01-04T03:40:16.307Z,1.40
2019-01-04T03:41:16.297Z,1.30
2019-01-04T03:42:16.286Z,1.20
2019-01-04T03:43:16.281Z,1.60
2019-01-04T03:44:16.268Z,2.00
2019-01-04T03:45:16.260Z,1.40
2019-01-04T03:46:16.240Z,1.20
2019-01-04T03:47:16.233Z,1.50
2019-01-04T03:48:16.223Z,1.20
2019-01-04T03:49:16.217Z,1.50
2019-01-04T03:50:16.201Z,1.80
2019-01-04T03:51:16.188Z,1.40
2019-01-04T03:52:16.173Z,1.20
2019-01-04T03:53:16.161Z,1.30
2019-01-04T03:54:16.150Z,1.40
2019-01-04T03:55:16.155Z,1.30
2019-01-04T03:56:16.131Z,1.20
2019-01-04T03:57:16.121Z,1.20
2019-01-04T03:58:16.110Z,1.40
2019-01-04T03:59:16.098Z,1.20
2019-01-04T04:00:16.086Z,1.30
2019-01-04T04:01:16.362Z,1.30
2019-01-04T04:02:16.064Z,1.30
2019-01-04T04:03:16.047Z,1.30
2019-01-04T04:04:16.036Z,1.20
2019-01-04T04:05:16.027Z,2.10
2019-01-04T04:06:16.013Z,1.30
2019-01-04T04:07:16.015Z,1.30
2019-01-04T04:08:15.997Z,1.10
2019-01-04T04:09:15.985Z,1.20
2019-01-04T04:10:15.975Z,1.40
2019-01-04T04:11:15.958Z,1.20
2019-01-04T04:12:15.946Z,1.30
2019-01-04T04:13:15.942Z,1.80
2019-01-04T04:14:15.925Z,1.40
2019-01-04T04:15:15.914Z,1.60
2019-01-04T04:16:15.901Z,1.40
2019-01-04T04:17:15.889Z,1.10
2019-01-04T04:18:15.878Z,1.40
2019-01-04T04:19:16.152Z,1.30
2019-01-04T04:20:15.859Z,1.30
2019-01-04T04:21:15.850Z,1.50
2019-01-04T04:22:15.837Z,1.20
2019-01-04T04:23:15.822Z,1.50
2019-01-04T04:24:15.810Z,1.70
2019-01-04T04:25:16.089Z,1.40
2019-01-04T04:26:15.788Z,1.40
2019-01-04T04:27:15.780Z,1.40
2019-01-04T04:28:15.769Z,1.30
2019-01-04T04:29:15.759Z,1.40
2019-01-04T04:30:15.750Z,1.40
2019-01-04T04:31:16.029Z,1.40
2019-01-04T04:32:15.724Z,1.30
2019-01-04T04:33:15.716Z,1.40
2019-01-04T04:34:15.702Z,1.70
2019-01-04T04:35:15.685Z,1.40
2019-01-04T04:36:15.674Z,1.80
2019-01-04T04:37:15.956Z,1.40
2019-01-04T04:38:15.654Z,1.30
2019-01-04T04:39:15.647Z,1.40
2019-01-04T04:40:15.634Z,1.40
2019-01-04T04:41:15.623Z,1.50
2019-01-04T04:42:15.611Z,1.20
2019-01-04T04:43:15.898Z,1.90
2019-01-04T04:44:15.584Z,1.30
2019-01-04T04:45:15.575Z,1.40
2019-01-04T04:46:15.561Z,1.50
2019-01-04T04:47:15.551Z,1.50
2019-01-04T04:48:15.539Z,1.60
2019-01-04T04:49:15.535Z,1.20
2019-01-04T04:50:15.516Z,1.40
2019-01-04T04:51:15.510Z,1.60
2019-01-04T04:52:15.500Z,1.30
2019-01-04T04:53:15.491Z,1.30
2019-01-04T04:54:15.475Z,1.40
2019-01-04T04:55:15.471Z,1.30
2019-01-04T04:56:15.450Z,1.50
2019-01-04T04:57:15.440Z,1.40
2019-01-04T04:58:15.425Z,1.30
2019-01-04T04:59:15.420Z,1.70
2019-01-04T05:00:15.407Z,1.60
2019-01-04T05:01:15.405Z,1.60
2019-01-04T05:02:15.388Z,1.90
2019-01-04T05:03:15.375Z,1.70
2019-01-04T05:04:15.362Z,1.50
2019-01-04T05:05:15.351Z,1.50
2019-01-04T05:06:15.342Z,1.40
2019-01-04T05:07:15.625Z,1.60
2019-01-04T05:08:15.315Z,1.30
2019-01-04T05:09:15.302Z,1.30
2019-01-04T05:10:15.293Z,1.40
2019-01-04T05:11:15.292Z,1.40
2019-01-04T05:12:15.272Z,1.50
2019-01-04T05:13:15.551Z,1.80
2019-01-04T05:14:15.250Z,1.50
2019-01-04T05:15:15.235Z,1.50
2019-01-04T05:16:15.222Z,1.20
2019-01-04T05:17:15.212Z,1.80
2019-01-04T05:18:15.199Z,1.30
2019-01-04T05:19:15.201Z,1.20
2019-01-04T05:20:15.181Z,1.40
2019-01-04T05:21:15.170Z,1.70
2019-01-04T05:22:15.162Z,1.20
2019-01-04T05:23:15.142Z,1.50
2019-01-04T05:24:15.132Z,1.40
2019-01-04T05:25:15.128Z,1.40
2019-01-04T05:26:15.119Z,1.40
2019-01-04T05:27:15.102Z,1.30
2019-01-04T05:28:15.093Z,1.40
2019-01-04T05:29:15.079Z,1.50
2019-01-04T05:30:15.070Z,1.40
2019-01-04T05:31:15.064Z,2.00
2019-01-04T05:32:15.043Z,1.40
2019-01-04T05:33:15.031Z,1.60
2019-01-04T05:34:15.020Z,1.30
2019-01-04T05:35:15.008Z,1.50
2019-01-04T05:36:14.997Z,1.90
2019-01-04T05:37:14.993Z,1.80
2019-01-04T05:38:14.982Z,1.70
2019-01-04T05:39:14.967Z,1.50
2019-01-04T05:40:14.956Z,1.50
2019-01-04T05:41:14.944Z,1.70
2019-01-04T05:42:14.937Z,1.30
2019-01-04T05:43:14.924Z,1.40
2019-01-04T05:44:14.905Z,1.40
2019-01-04T05:45:14.896Z,1.60
2019-01-04T05:46:14.890Z,1.50
2019-01-04T05:47:14.876Z,1.80
2019-01-04T05:48:14.866Z,1.40
2019-01-04T05:49:14.863Z,1.60
2019-01-04T05:50:14.844Z,1.30
2019-01-04T05:51:14.831Z,1.30
2019-01-04T05:52:14.821Z,1.80
2019-01-04T05:53:14.810Z,1.60
2019-01-04T05:54:14.798Z,1.70
2019-01-04T05:55:14.788Z,1.60
2019-01-04T05:56:14.769Z,2.10
2019-01-04T05:57:14.761Z,1.40
2019-01-04T05:58:14.747Z,1.40
2019-01-04T05:59:14.740Z,1.70
2019-01-04T06:00:14.729Z,1.50
2019-01-04T06:01:14.994Z,1.90
2019-01-04T06:02:14.707Z,2.00
2019-01-04T06:03:14.691Z,1.80
2019-01-04T06:04:14.680Z,1.80
2019-01-04T06:05:14.674Z,1.70
2019-01-04T06:06:14.657Z,1.80
2019-01-04T06:07:14.981Z,1.50
2019-01-04T06:08:14.634Z,2.10
2019-01-04T06:09:14.624Z,1.40
2019-01-04T06:10:14.614Z,1.60
2019-01-04T06:11:14.606Z,2.00
2019-01-04T06:12:14.594Z,1.70
2019-01-04T06:13:14.591Z,1.90
2019-01-04T06:14:14.571Z,1.50
2019-01-04T06:15:14.555Z,2.00
2019-01-04T06:16:14.545Z,1.50
2019-01-04T06:17:14.533Z,1.80
2019-01-04T06:18:14.521Z,2.00
2019-01-04T06:19:14.524Z,1.70
2019-01-04T06:20:14.503Z,2.00
2019-01-04T06:21:14.493Z,1.50
2019-01-04T06:22:14.482Z,1.30
2019-01-04T06:23:14.465Z,1.70
2019-01-04T06:24:14.454Z,1.50
2019-01-04T06:25:14.738Z,1.60
2019-01-04T06:26:14.436Z,2.10
2019-01-04T06:27:14.424Z,1.60
2019-01-04T06:28:14.412Z,1.40
2019-01-04T06:29:14.401Z,1.50
2019-01-04T06:30:14.389Z,1.30
2019-01-04T06:31:14.663Z,1.70
2019-01-04T06:32:14.362Z,1.40
2019-01-04T06:33:14.352Z,1.80
2019-01-04T06:34:14.340Z,1.70
2019-01-04T06:35:14.334Z,1.70
2019-01-04T06:36:14.322Z,2.60
2019-01-04T06:37:14.590Z,1.80
2019-01-04T06:38:14.300Z,1.50
2019-01-04T06:39:14.289Z,1.70
2019-01-04T06:40:14.277Z,1.60
2019-01-04T06:41:14.266Z,1.60
2019-01-04T06:42:14.255Z,1.70
2019-01-04T06:43:14.544Z,1.60
2019-01-04T06:44:14.227Z,1.60
2019-01-04T06:45:14.216Z,1.90
2019-01-04T06:46:14.205Z,1.60
2019-01-04T06:47:14.198Z,1.60
2019-01-04T06:48:14.187Z,1.60
2019-01-04T06:49:14.202Z,1.60
2019-01-04T06:50:14.165Z,1.70
2019-01-04T06:51:14.153Z,2.00
2019-01-04T06:52:14.138Z,1.40
2019-01-04T06:53:14.124Z,1.70
2019-01-04T06:54:14.114Z,2.10
2019-01-04T06:55:14.426Z,1.40
2019-01-04T06:56:14.091Z,1.40
2019-01-04T06:57:14.079Z,1.30
2019-01-04T06:58:14.069Z,1.80
2019-01-04T06:59:14.065Z,2.00
2019-01-04T07:00:14.051Z,1.50
2019-01-04T07:01:14.342Z,1.50
2019-01-04T07:02:14.027Z,1.70
2019-01-04T07:03:14.012Z,1.60
2019-01-04T07:04:14.001Z,1.70
2019-01-04T07:05:13.989Z,1.60
2019-01-04T07:06:13.980Z,1.40
2019-01-04T07:07:14.281Z,1.50
2019-01-04T07:08:13.966Z,1.50
2019-01-04T07:09:13.950Z,1.60
2019-01-04T07:10:13.937Z,1.40
2019-01-04T07:11:13.926Z,1.60
2019-01-04T07:12:13.916Z,1.60
2019-01-04T07:13:14.200Z,1.40
2019-01-04T07:14:13.892Z,1.80
2019-01-04T07:15:13.876Z,1.80
2019-01-04T07:16:13.865Z,1.70
2019-01-04T07:17:13.854Z,1.60
2019-01-04T07:18:13.847Z,1.60
2019-01-04T07:19:13.841Z,1.40
2019-01-04T07:20:13.824Z,1.50
2019-01-04T07:21:13.813Z,1.80
2019-01-04T07:22:13.803Z,1.80
2019-01-04T07:23:13.787Z,1.90
2019-01-04T07:24:13.774Z,2.10
2019-01-04T07:25:13.785Z,1.50
2019-01-04T07:26:13.752Z,1.40
2019-01-04T07:27:13.745Z,1.50
2019-01-04T07:28:13.735Z,1.60
2019-01-04T07:29:13.724Z,1.80
2019-01-04T07:30:13.711Z,1.40
2019-01-04T07:31:13.986Z,1.50
2019-01-04T07:32:13.685Z,1.70
2019-01-04T07:33:13.674Z,1.60
2019-01-04T07:34:13.699Z,1.80
2019-01-04T07:35:13.655Z,1.60
2019-01-04T07:36:13.644Z,2.40
2019-01-04T07:37:13.977Z,1.50
2019-01-04T07:38:13.622Z,1.80
2019-01-04T07:39:13.606Z,1.50
2019-01-04T07:40:13.595Z,1.40
2019-01-04T07:41:13.584Z,1.30
2019-01-04T07:42:13.571Z,1.80
2019-01-04T07:43:16.520Z,1.40
2019-01-04T07:44:13.549Z,1.40
2019-01-04T07:45:13.538Z,2.00
2019-01-04T07:46:13.528Z,1.40
2019-01-04T07:47:13.520Z,1.30
2019-01-04T07:48:13.510Z,1.50
2019-01-04T07:49:13.782Z,1.80
2019-01-04T07:50:13.486Z,1.40
2019-01-04T07:51:13.470Z,1.50
2019-01-04T07:52:13.459Z,1.70
2019-01-04T07:53:13.448Z,1.90
2019-01-04T07:54:13.436Z,1.60
2019-01-04T07:55:13.721Z,1.50
2019-01-04T07:56:13.418Z,1.50
2019-01-04T07:57:13.407Z,1.40
2019-01-04T07:58:13.397Z,1.50
2019-01-04T07:59:13.384Z,1.60
2019-01-04T08:00:13.373Z,1.50
2019-01-04T08:01:13.658Z,1.40
2019-01-04T08:02:13.351Z,1.40
2019-01-04T08:03:13.334Z,1.40
2019-01-04T08:04:13.322Z,1.30
2019-01-04T08:05:13.312Z,1.40
2019-01-04T08:06:13.301Z,1.20
2019-01-04T08:07:13.641Z,1.50
2019-01-04T08:08:13.282Z,1.40
2019-01-04T08:09:13.271Z,1.50
2019-01-04T08:10:13.261Z,2.00
2019-01-04T08:11:13.244Z,1.50
2019-01-04T08:12:13.233Z,1.50
2019-01-04T08:13:13.539Z,1.40
2019-01-04T08:14:13.209Z,1.80
2019-01-04T08:15:13.200Z,1.70
2019-01-04T08:16:13.190Z,2.00
2019-01-04T08:17:13.177Z,1.60
2019-01-04T08:18:13.165Z,1.50
2019-01-04T08:19:13.435Z,1.20
2019-01-04T08:20:13.146Z,1.40
2019-01-04T08:21:13.131Z,1.50
2019-01-04T08:22:13.120Z,1.50
2019-01-04T08:23:13.108Z,1.50
2019-01-04T08:24:13.097Z,1.60
2019-01-04T08:25:13.094Z,1.30
2019-01-04T08:26:13.075Z,1.50
2019-01-04T08:27:13.064Z,2.10
2019-01-04T08:28:13.052Z,1.60
2019-01-04T08:29:13.042Z,1.30
2019-01-04T08:30:13.030Z,2.70
2019-01-04T08:31:13.303Z,1.30
2019-01-04T08:32:13.740Z,1.50
2019-01-04T08:33:12.995Z,1.60
2019-01-04T08:34:12.984Z,2.70
2019-01-04T08:35:12.973Z,1.30
2019-01-04T08:36:12.962Z,1.40
2019-01-04T08:37:13.235Z,1.70
2019-01-04T08:38:12.939Z,1.60
2019-01-04T08:39:12.927Z,1.20
2019-01-04T08:40:12.917Z,2.00
2019-01-04T08:41:12.905Z,1.20
2019-01-04T08:42:12.893Z,1.20
2019-01-04T08:43:12.890Z,2.60
2019-01-04T08:44:12.871Z,2.70
2019-01-04T08:45:12.861Z,1.90
2019-01-04T08:46:12.850Z,1.50
2019-01-04T08:47:12.838Z,1.30
2019-01-04T08:48:12.827Z,1.30
2019-01-04T08:49:13.164Z,1.30
2019-01-04T08:50:12.811Z,1.50
2019-01-04T08:51:12.792Z,1.60
2019-01-04T08:52:12.782Z,1.50
2019-01-04T08:53:12.771Z,1.40
2019-01-04T08:54:12.758Z,1.20
2019-01-04T08:55:13.080Z,1.20
2019-01-04T08:56:12.738Z,1.80
2019-01-04T08:57:12.724Z,1.50
2019-01-04T08:58:12.712Z,1.60
2019-01-04T08:59:12.702Z,1.40
2019-01-04T09:00:12.692Z,1.30
2019-01-04T09:01:12.963Z,1.60
2019-01-04T09:02:12.669Z,1.80
2019-01-04T09:03:12.656Z,2.10
2019-01-04T09:04:12.646Z,1.10
2019-01-04T09:05:12.634Z,2.20
2019-01-04T09:06:12.626Z,1.70
2019-01-04T09:07:12.896Z,1.40
2019-01-04T09:08:12.602Z,1.40
2019-01-04T09:09:12.589Z,1.30
2019-01-04T09:10:12.578Z,1.70
2019-01-04T09:11:12.567Z,2.00
2019-01-04T09:12:12.555Z,2.00
2019-01-04T09:13:12.819Z,2.00
2019-01-04T09:14:12.531Z,1.80
2019-01-04T09:15:12.522Z,2.20
2019-01-04T09:16:12.510Z,2.00
2019-01-04T09:17:12.498Z,1.80
2019-01-04T09:18:12.488Z,1.80
2019-01-04T09:19:12.483Z,1.60
2019-01-04T09:20:12.466Z,2.00
2019-01-04T09:21:12.453Z,3.00
2019-01-04T09:22:12.443Z,2.40
2019-01-04T09:23:12.431Z,2.50
2019-01-04T09:24:12.419Z,2.00
2019-01-04T09:25:12.696Z,3.30
2019-01-04T09:26:12.397Z,2.20
2019-01-04T09:27:12.386Z,2.80
2019-01-04T09:28:17.878Z,2.00
2019-01-04T09:29:13.363Z,1.50
2019-01-04T09:30:12.353Z,1.60
2019-01-04T09:31:12.628Z,2.30
2019-01-04T09:32:12.334Z,1.40
2019-01-04T09:33:12.318Z,1.90
2019-01-04T09:34:12.307Z,7.70
2019-01-04T09:35:12.296Z,7.60
2019-01-04T09:36:12.284Z,3.50
2019-01-04T09:37:12.278Z,3.00
2019-01-04T09:38:12.261Z,2.50
2019-01-04T09:39:12.250Z,1.80
2019-01-04T09:40:12.238Z,3.10
2019-01-04T09:41:12.228Z,2.50
2019-01-04T09:42:12.216Z,2.30
2019-01-04T09:43:12.531Z,2.10
2019-01-04T09:44:12.193Z,3.00
2019-01-04T09:45:12.182Z,3.90
2019-01-04T09:46:12.171Z,2.60
2019-01-04T09:47:12.160Z,2.70
2019-01-04T09:48:12.148Z,2.20
2019-01-04T09:49:12.413Z,3.00
2019-01-04T09:50:12.129Z,2.70
2019-01-04T09:51:12.116Z,2.50
2019-01-04T09:52:12.103Z,3.00
2019-01-04T09:53:12.093Z,2.60
2019-01-04T09:54:12.085Z,3.70
2019-01-04T09:55:12.357Z,3.20
2019-01-04T09:56:12.059Z,2.50
2019-01-04T09:57:12.048Z,2.80
2019-01-04T09:58:12.034Z,2.20
2019-01-04T09:59:12.023Z,3.50
2019-01-04T10:00:12.013Z,3.30
2019-01-04T10:01:12.296Z,3.70
2019-01-04T10:02:11.990Z,2.50
2019-01-04T10:03:11.979Z,2.30
2019-01-04T10:04:11.969Z,2.20
2019-01-04T10:05:11.956Z,3.00
2019-01-04T10:06:11.947Z,4.10
2019-01-04T10:07:12.227Z,3.70
2019-01-04T10:08:11.922Z,2.60
2019-01-04T10:09:11.912Z,2.60
2019-01-04T10:10:11.901Z,2.90
2019-01-04T10:11:11.888Z,3.10
2019-01-04T10:12:11.878Z,2.30
2019-01-04T10:13:11.876Z,3.50
2019-01-04T10:14:11.855Z,2.50
2019-01-04T10:15:11.844Z,3.10
2019-01-04T10:16:11.832Z,2.50
2019-01-04T10:17:11.821Z,4.10
2019-01-04T10:18:11.828Z,2.50
2019-01-04T10:19:12.085Z,3.40
2019-01-04T10:20:11.788Z,2.80
2019-01-04T10:21:11.776Z,2.40
2019-01-04T10:22:11.765Z,2.90
2019-01-04T10:23:11.754Z,2.20
2019-01-04T10:24:12.870Z,2.80
2019-01-04T10:25:11.751Z,2.80
2019-01-04T10:26:11.759Z,2.20
2019-01-04T10:27:11.709Z,2.50
2019-01-04T10:28:11.697Z,2.70
2019-01-04T10:29:11.686Z,2.20
2019-01-04T10:30:11.675Z,2.40
2019-01-04T10:31:12.003Z,2.60
2019-01-04T10:32:11.654Z,2.70
2019-01-04T10:33:11.641Z,2.10
2019-01-04T10:34:11.629Z,2.10
2019-01-04T10:35:11.621Z,3.00
2019-01-04T10:36:14.205Z,2.30
2019-01-04T10:37:11.882Z,3.00
2019-01-04T10:38:11.584Z,2.20
2019-01-04T10:39:11.577Z,3.50
2019-01-04T10:40:11.564Z,2.30
2019-01-04T10:41:11.551Z,2.80
2019-01-04T10:42:11.540Z,2.10
2019-01-04T10:43:11.830Z,2.30
2019-01-04T10:44:11.517Z,2.30
2019-01-04T10:45:11.506Z,3.50
2019-01-04T10:46:11.496Z,2.40
2019-01-04T10:47:11.483Z,2.30
2019-01-04T10:48:11.472Z,2.40
2019-01-04T10:49:11.752Z,2.10
2019-01-04T10:50:11.449Z,2.70
2019-01-04T10:51:11.437Z,2.00
2019-01-04T10:52:11.426Z,1.70
2019-01-04T10:53:11.417Z,2.10
2019-01-04T10:54:11.407Z,2.50
2019-01-04T10:55:11.683Z,2.90
2019-01-04T10:56:11.388Z,2.20
2019-01-04T10:57:11.371Z,2.60
2019-01-04T10:58:11.361Z,2.10
2019-01-04T10:59:11.347Z,1.80
2019-01-04T11:00:11.337Z,2.50
2019-01-04T11:01:11.334Z,2.60
2019-01-04T11:02:11.313Z,2.00
2019-01-04T11:03:11.304Z,2.30
2019-01-04T11:04:11.293Z,1.70
2019-01-04T11:05:11.280Z,2.60
2019-01-04T11:06:11.268Z,3.70
2019-01-04T11:07:11.531Z,2.30
2019-01-04T11:08:11.246Z,2.30
2019-01-04T11:09:11.236Z,2.10
2019-01-04T11:10:11.223Z,2.70
2019-01-04T11:11:11.212Z,2.20
2019-01-04T11:12:11.200Z,2.40
2019-01-04T11:13:11.196Z,3.30
2019-01-04T11:14:11.180Z,1.70
2019-01-04T11:15:11.205Z,1.90
2019-01-04T11:16:11.158Z,2.30
2019-01-04T11:17:11.144Z,3.60
2019-01-04T11:18:11.134Z,2.30
2019-01-04T11:19:11.385Z,2.60
2019-01-04T11:20:11.110Z,2.60
2019-01-04T11:21:11.099Z,2.60
2019-01-04T11:22:11.088Z,2.00
2019-01-04T11:23:11.077Z,1.70
2019-01-04T11:24:11.065Z,2.00
2019-01-04T11:25:11.063Z,3.00
2019-01-04T11:26:11.042Z,1.90
2019-01-04T11:27:11.032Z,2.90
2019-01-04T11:28:11.021Z,2.20
2019-01-04T11:29:11.009Z,2.40
2019-01-04T11:30:10.998Z,2.30
2019-01-04T11:31:10.995Z,4.40
2019-01-04T11:32:10.977Z,2.40
2019-01-04T11:33:10.965Z,2.00
2019-01-04T11:34:10.952Z,4.40
2019-01-04T11:35:10.942Z,2.40
2019-01-04T11:36:10.935Z,1.80
2019-01-04T11:37:11.178Z,2.10
2019-01-04T11:38:10.907Z,1.60
2019-01-04T11:39:10.896Z,2.20
2019-01-04T11:40:10.886Z,1.90
2019-01-04T11:41:10.878Z,2.30
2019-01-04T11:42:10.864Z,2.00
2019-01-04T11:43:10.859Z,1.60
2019-01-04T11:44:10.841Z,2.00
2019-01-04T11:45:10.829Z,2.20
2019-01-04T11:46:10.821Z,2.90
2019-01-04T11:47:10.806Z,2.50
2019-01-04T11:48:10.796Z,2.40
2019-01-04T11:49:10.793Z,1.70
2019-01-04T11:50:10.772Z,2.10
2019-01-04T11:51:10.762Z,1.70
2019-01-04T11:52:10.751Z,1.50
2019-01-04T11:53:10.741Z,2.20
2019-01-04T11:54:10.728Z,2.40
2019-01-04T11:55:10.728Z,1.70
2019-01-04T11:56:10.725Z,2.90
2019-01-04T11:57:10.694Z,3.10
2019-01-04T11:58:10.683Z,2.20
2019-01-04T11:59:10.671Z,2.60
2019-01-04T12:00:10.662Z,2.50
2019-01-04T12:01:10.935Z,2.20
2019-01-04T12:02:10.643Z,2.30
2019-01-04T12:03:10.628Z,2.10
2019-01-04T12:04:10.617Z,2.10
2019-01-04T12:05:10.605Z,2.50
2019-01-04T12:06:10.594Z,2.60
2019-01-04T12:07:10.588Z,1.60
2019-01-04T12:08:10.570Z,2.00
2019-01-04T12:09:10.562Z,1.90
2019-01-04T12:10:10.548Z,3.60
2019-01-04T12:11:10.538Z,1.70
2019-01-04T12:12:10.525Z,1.90
2019-01-04T12:13:10.801Z,2.60
2019-01-04T12:14:10.502Z,2.00
2019-01-04T12:15:10.494Z,2.00
2019-01-04T12:16:10.479Z,2.20
2019-01-04T12:17:10.473Z,1.90
2019-01-04T12:18:10.457Z,1.50
2019-01-04T12:19:10.790Z,1.50
2019-01-04T12:20:10.435Z,3.00
2019-01-04T12:21:10.425Z,1.60
2019-01-04T12:22:10.415Z,1.70
2019-01-04T12:23:11.250Z,2.30
2019-01-04T12:24:10.394Z,1.90
2019-01-04T12:25:10.646Z,1.70
2019-01-04T12:26:10.366Z,3.60
2019-01-04T12:27:10.357Z,2.30
2019-01-04T12:28:10.343Z,1.90
2019-01-04T12:29:10.333Z,2.00
2019-01-04T12:30:10.322Z,2.40
2019-01-04T12:31:10.319Z,2.10
2019-01-04T12:32:10.301Z,1.60
2019-01-04T12:33:10.289Z,2.20
2019-01-04T12:34:16.502Z,1.50
2019-01-04T12:35:11.264Z,2.90
2019-01-04T12:36:10.255Z,1.50
2019-01-04T12:37:10.540Z,2.70
2019-01-04T12:38:10.233Z,1.60
2019-01-04T12:39:10.221Z,1.90
2019-01-04T12:40:10.211Z,1.90
2019-01-04T12:41:10.199Z,2.60
2019-01-04T12:42:10.187Z,2.50
2019-01-04T12:43:10.500Z,1.70
2019-01-04T12:44:10.164Z,2.20
2019-01-04T12:45:10.153Z,1.60
2019-01-04T12:46:10.143Z,1.70
2019-01-04T12:47:10.130Z,2.80
2019-01-04T12:48:10.119Z,2.30
2019-01-04T12:49:10.119Z,3.10
2019-01-04T12:50:10.096Z,2.10
2019-01-04T12:51:10.086Z,1.90
2019-01-04T12:52:10.075Z,2.20
2019-01-04T12:53:10.063Z,1.70
2019-01-04T12:54:10.051Z,2.50
2019-01-04T12:55:10.056Z,1.70
2019-01-04T12:56:10.029Z,2.10
2019-01-04T12:57:10.018Z,3.10
2019-01-04T12:58:10.007Z,3.30
2019-01-04T12:59:09.998Z,2.20
2019-01-04T13:00:09.988Z,2.50
2019-01-04T13:01:09.979Z,1.80
2019-01-04T13:02:09.963Z,2.30
2019-01-04T13:03:09.949Z,1.70
2019-01-04T13:04:09.940Z,2.60
2019-01-04T13:05:09.927Z,1.80
2019-01-04T13:06:09.915Z,2.90
2019-01-04T13:07:10.247Z,1.90
2019-01-04T13:08:09.894Z,1.80
2019-01-04T13:09:09.883Z,2.30
2019-01-04T13:10:09.871Z,1.90
2019-01-04T13:11:09.860Z,2.00
2019-01-04T13:12:09.849Z,1.50
2019-01-04T13:13:10.158Z,2.10
2019-01-04T13:14:09.826Z,2.40
2019-01-04T13:15:09.815Z,1.80
2019-01-04T13:16:09.804Z,1.60
2019-01-04T13:17:09.794Z,2.90
2019-01-04T13:18:09.781Z,1.60